Time;durP1;ratioP1;P1;durP2;ratioP2;P2;SDS_P1;SDS_P2;PMS_P1;PMS_P2;Temp;Humidity;BMP_temperature;BMP_pressure;BME280_temperature;BME280_humidity;BME280_pressure;Samples;Min_cycle;Max_cycle;Signal;HPM_P1;HPM_P2
2022/04/08 00:00:03;;;;;;;5.00;3.50;;;;;;;9.45;63.28;95484.16;107832;1290;22404;-89
2022/04/08 00:02:52;;;;;;;4.60;3.80;;;;;;;9.43;63.49;95490.48;107825;1291;22434;-90
2022/04/08 00:05:21;;;;;;;5.30;4.00;;;;;;;9.41;64.09;95486.39;107885;1291;22274;-90
2022/04/08 00:07:49;;;;;;;6.00;4.30;;;;;;;9.37;64.41;95490.12;107593;1291;22450;-91
2022/04/08 00:10:18;;;;;;;6.00;4.40;;;;;;;9.32;63.51;95488.80;107649;1291;22423;-93
2022/04/08 00:12:46;;;;;;;5.30;4.20;;;;;;;9.30;63.88;95524.06;107573;1291;22377;-91
2022/04/08 00:15:14;;;;;;;6.50;4.20;;;;;;;9.27;65.49;95526.39;107895;1291;22289;-92
2022/04/08 00:17:42;;;;;;;5.50;4.20;;;;;;;9.23;65.26;95518.23;107869;1291;22214;-91
2022/04/08 00:20:10;;;;;;;6.30;4.40;;;;;;;9.17;66.98;95520.83;107871;1291;22337;-90
2022/04/08 00:22:40;;;;;;;4.90;4.00;;;;;;;9.09;67.20;95524.58;107872;1291;22366;-91
2022/04/08 00:25:09;;;;;;;4.50;3.40;;;;;;;9.05;67.34;95526.31;107839;1291;22923;-89
2022/04/08 00:27:38;;;;;;;6.70;3.90;;;;;;;9.06;66.89;95537.77;107861;1291;22343;-89
2022/04/08 00:30:07;;;;;;;6.50;4.10;;;;;;;9.00;68.31;95514.98;107454;1291;216546;-90
2022/04/08 00:32:34;;;;;;;4.90;3.70;;;;;;;8.94;69.87;95507.98;107870;1291;22320;-92
2022/04/08 00:35:02;;;;;;;5.30;3.90;;;;;;;8.84;69.93;95513.20;107870;1291;22330;-90
2022/04/08 00:37:30;;;;;;;4.50;3.70;;;;;;;8.78;68.84;95520.56;107890;1291;22524;-92
2022/04/08 00:39:58;;;;;;;5.80;3.90;;;;;;;8.74;68.94;95519.87;107909;1291;22356;-89
2022/04/08 00:42:26;;;;;;;5.30;4.30;;;;;;;8.70;68.63;95522.96;107843;1293;22451;-91
2022/04/08 00:44:54;;;;;;;6.50;4.00;;;;;;;8.67;68.87;95523.88;107769;1292;22364;-88
2022/04/08 00:47:22;;;;;;;6.50;3.80;;;;;;;8.67;68.98;95524.13;107841;1290;22343;-82
2022/04/08 00:49:53;;;;;;;4.60;3.30;;;;;;;8.77;70.77;95525.02;107851;1290;22494;-81
2022/04/08 00:52:21;;;;;;;5.30;3.70;;;;;;;8.82;70.85;95541.61;107857;1289;22466;-83
2022/04/08 00:54:50;;;;;;;4.80;3.50;;;;;;;8.86;70.52;95551.30;107854;1291;22234;-83
2022/04/08 00:57:18;;;;;;;5.00;3.70;;;;;;;8.89;70.59;95549.62;107808;1291;22262;-84
2022/04/08 00:59:46;;;;;;;3.90;3.00;;;;;;;8.89;70.86;95570.50;107779;1291;23191;-84
2022/04/08 01:02:15;;;;;;;3.80;3.30;;;;;;;8.87;71.95;95573.59;107873;1291;22360;-84
2022/04/08 01:04:43;;;;;;;5.00;3.40;;;;;;;8.82;71.42;95564.34;107829;1291;22326;-88
2022/04/08 01:07:11;;;;;;;4.10;2.80;;;;;;;8.72;71.34;95566.59;107852;1290;22263;-86
2022/04/08 01:09:39;;;;;;;4.90;3.60;;;;;;;8.63;72.48;95560.29;107833;1290;23257;-86
2022/04/08 01:12:07;;;;;;;3.50;2.90;;;;;;;8.59;71.93;95575.02;107834;1291;22301;-87
2022/04/08 01:14:38;;;;;;;2.80;2.60;;;;;;;8.58;72.04;95579.42;107869;1291;22272;-86
2022/04/08 01:17:06;;;;;;;5.10;3.20;;;;;;;8.57;71.33;95578.46;107642;1291;22295;-85
2022/04/08 01:19:34;;;;;;;5.30;3.70;;;;;;;8.54;71.70;95586.44;107843;1290;22398;-87
2022/04/08 01:22:03;;;;;;;4.40;3.40;;;;;;;8.53;71.82;95588.51;107839;1291;22302;-87
2022/04/08 01:24:35;;;;;;;6.20;3.90;;;;;;;8.55;71.72;95574.44;107724;1291;22395;-85
2022/04/08 01:27:03;;;;;;;4.50;3.50;;;;;;;8.57;71.38;95583.30;107803;1291;22383;-87
2022/04/08 01:29:31;;;;;;;4.60;3.80;;;;;;;8.56;71.70;95594.71;107831;1291;22376;-86
2022/04/08 01:31:59;;;;;;;6.10;3.80;;;;;;;8.57;71.00;95604.16;107538;1291;22322;-86
2022/04/08 01:34:27;;;;;;;7.70;3.50;;;;;;;8.57;70.78;95597.12;107828;1291;22525;-86
2022/04/08 01:36:55;;;;;;;6.50;4.10;;;;;;;8.60;70.33;95583.69;107601;1291;22375;-86
2022/04/08 01:39:22;;;;;;;8.40;4.50;;;;;;;8.64;69.84;95583.80;107684;1293;23192;-86
2022/04/08 01:41:50;;;;;;;8.00;4.10;;;;;;;8.67;69.75;95581.02;107792;1290;22383;-86
2022/04/08 01:44:19;;;;;;;7.00;4.70;;;;;;;8.67;69.67;95581.79;107715;1291;22312;-86
2022/04/08 01:46:47;;;;;;;6.10;3.90;;;;;;;8.67;69.42;95596.52;107844;1290;23260;-87
2022/04/08 01:49:15;;;;;;;5.40;3.70;;;;;;;8.66;68.95;95598.35;107816;1290;23117;-87
2022/04/08 01:51:43;;;;;;;8.70;3.90;;;;;;;8.68;69.12;95604.77;107787;1293;22466;-87
2022/04/08 01:54:11;;;;;;;8.20;4.10;;;;;;;8.71;68.80;95607.61;107958;1290;22368;-87
2022/04/08 01:56:39;;;;;;;10.90;4.10;;;;;;;8.72;68.93;95595.76;107580;1291;22255;-87
2022/04/08 01:59:07;;;;;;;6.30;4.50;;;;;;;8.72;68.56;95604.19;107698;1291;22327;-87
2022/04/08 02:01:35;;;;;;;8.00;3.90;;;;;;;8.72;68.62;95613.02;107609;1291;22409;-87
2022/04/08 02:04:04;;;;;;;9.30;4.70;;;;;;;8.70;68.45;95624.30;107839;1291;22918;-86
2022/04/08 02:06:32;;;;;;;5.90;3.90;;;;;;;8.69;68.20;95623.58;107558;1291;22509;-87
2022/04/08 02:09:00;;;;;;;6.40;3.50;;;;;;;8.68;67.83;95636.57;107576;1293;22381;-87
2022/04/08 02:11:28;;;;;;;6.70;3.80;;;;;;;8.69;67.65;95638.54;107821;1291;22734;-87
2022/04/08 02:13:56;;;;;;;7.20;3.20;;;;;;;8.72;66.73;95631.02;107699;1291;22287;-88
2022/04/08 02:16:24;;;;;;;7.90;3.70;;;;;;;8.73;66.51;95640.58;107809;1291;22366;-87
2022/04/08 02:18:52;;;;;;;6.80;3.30;;;;;;;8.74;65.31;95642.90;107565;1291;22368;-88
2022/04/08 02:21:21;;;;;;;6.10;3.30;;;;;;;8.73;63.23;95645.65;107810;1291;23121;-85
2022/04/08 02:23:50;;;;;;;5.20;3.70;;;;;;;8.76;62.85;95638.88;107868;1290;22379;-86
2022/04/08 02:26:19;;;;;;;4.20;3.20;;;;;;;8.77;62.21;95641.29;107914;1290;22500;-87
2022/04/08 02:28:46;;;;;;;8.00;3.90;;;;;;;8.77;62.45;95649.56;108266;1290;22429;-84
2022/04/08 02:31:14;;;;;;;6.10;3.20;;;;;;;8.76;62.19;95644.39;108288;1291;22339;-85
2022/04/08 02:33:42;;;;;;;7.60;3.90;;;;;;;8.75;61.11;95656.19;108164;1290;22278;-86
2022/04/08 02:36:11;;;;;;;8.30;4.50;;;;;;;8.74;61.11;95646.34;107855;1290;22479;-86
2022/04/08 02:38:39;;;;;;;8.30;4.10;;;;;;;8.72;60.32;95663.48;107861;1291;22232;-86
2022/04/08 02:41:07;;;;;;;7.00;4.10;;;;;;;8.70;59.69;95672.64;107936;1290;23157;-88
2022/04/08 02:43:37;;;;;;;6.60;3.80;;;;;;;8.69;59.25;95680.95;107857;1291;22380;-87
2022/04/08 02:46:05;;;;;;;6.80;3.90;;;;;;;8.66;58.01;95684.08;107626;1291;22251;-88
2022/04/08 02:48:33;;;;;;;8.20;3.70;;;;;;;8.62;57.06;95680.38;107838;1291;22423;-88
2022/04/08 02:51:01;;;;;;;8.00;3.40;;;;;;;8.60;56.58;95676.42;107867;1290;22326;-87
2022/04/08 02:53:29;;;;;;;7.60;3.60;;;;;;;8.58;55.84;95681.51;107850;1290;23171;-88
2022/04/08 02:55:56;;;;;;;6.30;3.80;;;;;;;8.56;55.45;95686.34;107839;1291;23121;-89
2022/04/08 02:58:27;;;;;;;6.00;3.90;;;;;;;8.53;54.76;95688.40;107845;1290;22266;-86
2022/04/08 03:00:59;;;;;;;6.00;3.90;;;;;;;8.51;54.65;95694.70;107557;1291;22374;-86
2022/04/08 03:03:27;;;;;;;5.40;3.70;;;;;;;8.46;53.81;95706.77;107832;1291;22466;-85
2022/04/08 03:05:55;;;;;;;5.80;4.10;;;;;;;8.44;53.65;95704.55;107834;1291;22411;-85
2022/04/08 03:08:23;;;;;;;13.10;9.80;;;;;;;8.43;54.33;95714.19;107470;1293;22190;-87
2022/04/08 03:10:51;;;;;;;9.50;5.70;;;;;;;8.40;54.60;95715.54;107847;1291;22486;-86
2022/04/08 03:13:19;;;;;;;11.50;6.70;;;;;;;8.37;55.03;95720.11;107824;1290;22382;-85
2022/04/08 03:15:47;;;;;;;12.40;6.20;;;;;;;8.32;55.30;95722.50;107445;1294;22517;-85
2022/04/08 03:18:14;;;;;;;7.50;4.30;;;;;;;8.28;54.30;95726.73;107813;1290;23192;-86
2022/04/08 03:20:43;;;;;;;8.10;4.70;;;;;;;8.25;54.75;95735.30;107875;1290;22891;-85
2022/04/08 03:23:10;;;;;;;10.40;5.20;;;;;;;8.21;54.54;95738.17;107849;1289;22315;-86
2022/04/08 03:25:38;;;;;;;9.20;6.00;;;;;;;8.17;54.36;95736.08;107854;1291;22519;-85
2022/04/08 03:28:09;;;;;;;8.60;5.00;;;;;;;8.14;54.51;95738.34;107833;1290;22524;-86
2022/04/08 03:30:37;;;;;;;8.10;4.80;;;;;;;8.10;53.53;95753.63;107578;1291;23294;-86
2022/04/08 03:33:05;;;;;;;8.40;4.30;;;;;;;8.10;53.77;95745.64;107836;1290;22652;-86
2022/04/08 03:35:33;;;;;;;16.70;4.90;;;;;;;8.08;54.03;95757.09;107596;1291;22396;-87
2022/04/08 03:38:01;;;;;;;7.50;4.70;;;;;;;8.05;54.54;95765.17;107668;1293;23075;-88
2022/04/08 03:40:29;;;;;;;11.90;4.50;;;;;;;8.02;54.16;95771.05;107866;1290;22300;-85
2022/04/08 03:42:57;;;;;;;9.90;5.00;;;;;;;7.98;53.80;95773.23;107863;1290;23050;-85
2022/04/08 03:45:25;;;;;;;7.80;4.50;;;;;;;7.98;53.85;95772.67;107666;1292;22976;-87
2022/04/08 03:47:52;;;;;;;9.00;4.80;;;;;;;7.94;54.06;95781.38;107687;1291;22349;-87
2022/04/08 03:50:20;;;;;;;7.60;4.20;;;;;;;7.91;53.90;95789.63;107646;1291;22402;-86
2022/04/08 03:52:48;;;;;;;10.20;4.80;;;;;;;7.89;54.33;95787.80;107841;1290;22390;-86
2022/04/08 03:55:17;;;;;;;8.20;4.50;;;;;;;7.84;54.30;95789.64;107655;1291;22234;-85
2022/04/08 03:57:45;;;;;;;6.00;3.90;;;;;;;7.80;53.76;95802.36;107575;1291;22268;-85
2022/04/08 04:00:13;;;;;;;8.00;4.10;;;;;;;7.77;52.90;95810.52;107851;1291;22263;-85
2022/04/08 04:02:41;;;;;;;9.80;4.60;;;;;;;7.76;53.08;95830.16;107814;1290;22449;-83
2022/04/08 04:05:10;;;;;;;7.90;4.00;;;;;;;7.74;53.19;95811.34;107827;1291;22368;-85
2022/04/08 04:07:38;;;;;;;7.50;4.30;;;;;;;7.71;53.10;95809.17;107597;1291;22320;-84
2022/04/08 04:10:06;;;;;;;9.40;4.70;;;;;;;7.68;53.10;95818.58;107580;1291;22445;-85
2022/04/08 04:12:34;;;;;;;9.60;4.30;;;;;;;7.66;53.04;95825.63;107587;1291;22373;-85
2022/04/08 04:15:04;;;;;;;8.10;4.60;;;;;;;7.64;53.18;95825.55;107690;1291;23029;-87
2022/04/08 04:17:32;;;;;;;9.10;4.40;;;;;;;7.60;53.06;95823.91;107588;1290;22465;-87
2022/04/08 04:20:04;;;;;;;8.40;4.80;;;;;;;7.56;52.75;95829.73;107880;1290;23070;-87
2022/04/08 04:22:58;;;;;;;8.60;5.20;;;;;;;7.54;52.68;95836.77;107852;1290;22477;-85
2022/04/08 04:25:28;;;;;;;12.10;4.90;;;;;;;7.50;53.01;95839.08;107821;1290;22321;-84
2022/04/08 04:27:56;;;;;;;7.70;4.40;;;;;;;7.47;52.39;95844.41;107861;1290;22163;-86
2022/04/08 04:30:26;;;;;;;13.00;4.70;;;;;;;7.45;52.37;95845.42;107861;1291;23000;-85
2022/04/08 04:32:55;;;;;;;10.10;4.80;;;;;;;7.44;51.57;95850.13;107840;1290;22211;-85
2022/04/08 04:35:23;;;;;;;7.80;4.70;;;;;;;7.45;51.88;95847.95;107823;1290;22387;-85
2022/04/08 04:37:51;;;;;;;8.40;4.60;;;;;;;7.45;51.61;95851.61;107855;1290;22408;-84
2022/04/08 04:40:20;;;;;;;9.00;4.60;;;;;;;7.44;51.84;95849.37;107833;1290;22328;-84
2022/04/08 04:42:47;;;;;;;10.30;5.60;;;;;;;7.44;51.91;95843.60;107825;1290;22394;-85
2022/04/08 04:45:15;;;;;;;8.60;5.80;;;;;;;7.43;51.76;95842.59;107839;1290;22390;-84
2022/04/08 04:47:43;;;;;;;12.90;6.20;;;;;;;7.43;51.83;95850.45;107807;1290;22289;-84
2022/04/08 04:50:11;;;;;;;9.00;5.10;;;;;;;7.42;51.50;95861.77;107562;1291;22391;-84
2022/04/08 04:52:39;;;;;;;10.30;6.20;;;;;;;7.43;51.54;95865.01;107841;1291;22340;-85
2022/04/08 04:55:07;;;;;;;12.90;6.10;;;;;;;7.44;51.49;95866.59;107829;1290;22464;-84
2022/04/08 04:57:35;;;;;;;10.60;6.00;;;;;;;7.45;51.39;95878.02;107827;1291;23235;-83
2022/04/08 05:00:05;;;;;;;11.20;7.10;;;;;;;7.47;51.41;95871.60;107820;1291;22322;-82
2022/04/08 05:02:34;;;;;;;10.30;5.90;;;;;;;7.49;51.48;95878.11;107887;1291;23084;-82
2022/04/08 05:05:03;;;;;;;9.90;5.60;;;;;;;7.53;51.69;95883.44;107819;1290;22669;-82
2022/04/08 05:07:31;;;;;;;10.50;5.10;;;;;;;7.55;51.77;95886.73;107820;1290;22268;-82
2022/04/08 05:09:59;;;;;;;14.60;7.80;;;;;;;7.59;51.40;95890.45;107873;1290;22395;-81
2022/04/08 05:12:26;;;;;;;11.80;6.80;;;;;;;7.62;52.14;95893.11;107582;1291;23108;-82
2022/04/08 05:14:54;;;;;;;13.50;8.10;;;;;;;7.64;52.18;95897.16;107855;1290;22458;-83
2022/04/08 05:17:22;;;;;;;18.70;10.90;;;;;;;7.66;52.22;95893.48;107837;1289;22491;-82
2022/04/08 05:19:50;;;;;;;13.50;8.50;;;;;;;7.68;52.70;95896.94;107849;1290;22265;-81
2022/04/08 05:22:18;;;;;;;14.20;7.50;;;;;;;7.70;52.69;95905.02;107857;1291;22355;-81
2022/04/08 05:24:46;;;;;;;18.80;8.70;;;;;;;7.72;52.86;95910.30;107868;1290;22443;-81
2022/04/08 05:27:13;;;;;;;19.50;10.20;;;;;;;7.74;53.15;95923.72;107871;1290;22476;-81
2022/04/08 05:29:41;;;;;;;13.60;8.30;;;;;;;7.77;53.22;95916.54;107828;1291;22386;-82
2022/04/08 05:32:09;;;;;;;11.80;6.60;;;;;;;7.80;53.13;95920.39;107849;1290;22776;-82
2022/04/08 05:34:37;;;;;;;10.20;5.60;;;;;;;7.82;53.20;95922.77;107864;1291;22445;-81
2022/04/08 05:37:05;;;;;;;15.60;8.60;;;;;;;7.85;53.21;95932.81;107866;1291;23641;-81
2022/04/08 05:39:34;;;;;;;9.40;5.60;;;;;;;7.86;53.22;95924.84;107872;1290;22516;-84
2022/04/08 05:42:02;;;;;;;9.70;5.40;;;;;;;7.88;53.06;95930.54;107585;1291;22287;-85
2022/04/08 05:44:30;;;;;;;12.40;5.50;;;;;;;7.89;52.91;95928.46;107627;1293;22334;-84
2022/04/08 05:46:57;;;;;;;12.50;6.10;;;;;;;7.91;52.83;95925.41;107885;1290;22382;-84
2022/04/08 05:49:25;;;;;;;15.10;7.50;;;;;;;7.94;52.55;95944.73;107570;1291;22414;-84
2022/04/08 05:51:53;;;;;;;9.00;4.90;;;;;;;7.97;52.50;95953.41;107871;1290;22453;-84
2022/04/08 05:54:21;;;;;;;14.20;6.30;;;;;;;8.01;52.22;95960.22;107894;1291;23560;-84
2022/04/08 05:56:49;;;;;;;9.60;5.90;;;;;;;8.04;51.88;95974.20;107895;1291;23072;-83
2022/04/08 05:59:17;;;;;;;14.10;9.40;;;;;;;8.05;51.64;95957.20;107588;1291;22265;-81
2022/04/08 06:01:45;;;;;;;13.30;7.40;;;;;;;8.05;51.63;95983.81;107898;1290;23056;-83
2022/04/08 06:04:14;;;;;;;19.80;11.50;;;;;;;8.05;51.63;95967.34;107895;1290;22268;-84
2022/04/08 06:06:43;;;;;;;20.90;11.00;;;;;;;8.04;51.41;95976.81;107862;1291;22291;-83
2022/04/08 06:09:11;;;;;;;16.30;8.60;;;;;;;8.06;51.82;95972.80;107618;1292;22477;-85
2022/04/08 06:11:39;;;;;;;20.00;9.60;;;;;;;8.09;51.45;95968.20;107884;1290;22505;-82
2022/04/08 06:14:09;;;;;;;11.30;4.70;;;;;;;8.14;50.99;95991.25;107547;1293;22359;-84
2022/04/08 06:16:40;;;;;;;16.20;9.00;;;;;;;8.14;51.03;95984.59;107865;1291;22512;-84
2022/04/08 06:19:08;;;;;;;13.60;8.60;;;;;;;8.18;51.16;95981.91;107878;1291;22382;-83
2022/04/08 06:21:36;;;;;;;14.50;7.90;;;;;;;8.22;51.45;95982.95;107649;1291;22361;-84
2022/04/08 06:24:04;;;;;;;13.50;6.80;;;;;;;8.22;50.69;95988.86;107889;1291;22377;-85
2022/04/08 06:26:34;;;;;;;12.00;6.80;;;;;;;8.19;50.65;95985.23;107862;1290;22342;-85
2022/04/08 06:29:05;;;;;;;11.40;5.70;;;;;;;8.18;50.26;95998.02;107907;1290;22270;-85
2022/04/08 06:31:34;;;;;;;11.70;6.30;;;;;;;8.21;49.46;95997.32;107890;1290;22479;-84
2022/04/08 06:34:02;;;;;;;15.80;8.00;;;;;;;8.27;49.72;95987.64;107575;1290;22321;-83
2022/04/08 06:36:29;;;;;;;17.70;7.90;;;;;;;8.32;49.63;95987.61;107919;1290;22400;-84
2022/04/08 06:38:57;;;;;;;9.90;5.80;;;;;;;8.38;49.66;95995.17;107885;1290;22266;-82
2022/04/08 06:41:25;;;;;;;10.80;4.90;;;;;;;8.44;48.63;96032.58;107888;1291;22389;-83
2022/04/08 06:43:53;;;;;;;11.50;6.20;;;;;;;8.47;48.44;96027.25;107875;1290;22436;-84
2022/04/08 06:46:22;;;;;;;15.40;8.40;;;;;;;8.47;48.33;96012.55;107882;1291;22707;-83
2022/04/08 06:48:50;;;;;;;12.30;6.80;;;;;;;8.52;48.39;96006.77;107896;1291;22437;-83
2022/04/08 06:51:18;;;;;;;12.20;6.90;;;;;;;8.58;48.02;96024.49;107632;1292;22369;-83
2022/04/08 06:53:46;;;;;;;8.30;5.30;;;;;;;8.69;48.15;96020.09;107890;1290;22426;-84
2022/04/08 06:56:14;;;;;;;11.30;5.90;;;;;;;8.76;47.63;96033.05;107888;1291;22511;-84
2022/04/08 06:58:42;;;;;;;12.80;6.60;;;;;;;8.78;47.04;96028.14;107904;1291;22270;-85
2022/04/08 07:01:10;;;;;;;14.20;6.10;;;;;;;8.78;47.24;96030.92;107545;1292;22279;-83
2022/04/08 07:03:38;;;;;;;11.40;5.60;;;;;;;8.79;47.12;96036.55;107896;1291;22950;-82
2022/04/08 07:06:06;;;;;;;8.70;5.10;;;;;;;8.84;46.50;96033.25;107907;1290;22330;-84
2022/04/08 07:08:34;;;;;;;13.10;6.80;;;;;;;8.89;46.81;96039.64;107571;1291;22293;-85
2022/04/08 07:11:01;;;;;;;10.10;4.90;;;;;;;8.92;46.53;96045.04;107903;1291;22985;-86
2022/04/08 07:13:29;;;;;;;10.90;5.80;;;;;;;8.92;46.15;96037.31;107879;1290;22344;-87
2022/04/08 07:15:57;;;;;;;10.60;5.90;;;;;;;8.93;46.69;96035.66;107923;1291;22348;-87
2022/04/08 07:18:27;;;;;;;11.90;6.50;;;;;;;8.97;46.96;96037.92;107653;1294;22254;-87
2022/04/08 07:20:55;;;;;;;12.10;5.80;;;;;;;9.01;46.17;96050.48;107861;1290;22662;-83
2022/04/08 07:23:23;;;;;;;11.90;6.00;;;;;;;9.00;45.89;96050.52;107881;1290;22405;-87
2022/04/08 07:25:51;;;;;;;10.10;5.30;;;;;;;9.01;46.02;96062.90;107537;1291;22533;-86
2022/04/08 07:28:20;;;;;;;14.30;7.50;;;;;;;9.02;46.31;96051.59;107862;1290;22453;-83
2022/04/08 07:30:49;;;;;;;8.00;4.70;;;;;;;9.06;45.67;96072.84;107548;1293;22404;-86
2022/04/08 07:33:17;;;;;;;12.00;6.50;;;;;;;9.07;45.56;96060.98;107934;1290;22680;-85
2022/04/08 07:35:45;;;;;;;19.40;10.20;;;;;;;9.11;44.74;96078.54;107967;1290;22396;-83
2022/04/08 07:38:17;;;;;;;8.60;4.90;;;;;;;9.12;44.31;96083.46;107983;1290;22261;-85
2022/04/08 07:41:00;;;;;;;8.50;4.50;;;;;;;9.08;44.15;96070.46;107749;1290;22616;-85
2022/04/08 07:43:28;;;;;;;13.70;5.10;;;;;;;9.07;43.87;96072.56;107988;1290;22451;-84
2022/04/08 07:45:56;;;;;;;13.30;5.50;;;;;;;9.07;44.17;96080.94;107900;1290;22291;-85
2022/04/08 07:48:24;;;;;;;9.30;4.40;;;;;;;9.09;44.39;96079.70;107893;1289;22324;-87
2022/04/08 07:50:52;;;;;;;11.30;5.70;;;;;;;9.10;44.15;96097.38;107865;1291;22336;-86
2022/04/08 07:53:20;;;;;;;9.60;5.30;;;;;;;9.13;44.58;96083.95;107894;1290;22540;-84
2022/04/08 07:55:48;;;;;;;10.70;5.40;;;;;;;9.15;44.27;96096.22;107595;1291;22347;-87
2022/04/08 07:58:15;;;;;;;8.10;5.20;;;;;;;9.15;44.19;96093.38;107880;1291;22324;-85
2022/04/08 08:00:43;;;;;;;6.90;4.60;;;;;;;9.15;44.34;96105.58;107856;1291;22474;-85
2022/04/08 08:03:15;;;;;;;13.90;6.00;;;;;;;9.12;44.34;96100.05;107885;1291;22823;-86
2022/04/08 08:05:43;;;;;;;11.10;5.30;;;;;;;9.16;44.72;96092.89;107630;1292;22354;-86
2022/04/08 08:08:11;;;;;;;12.60;7.10;;;;;;;9.23;44.91;96093.82;107873;1291;22478;-81
2022/04/08 08:10:43;;;;;;;10.90;4.70;;;;;;;9.25;43.77;96112.39;107861;1291;23143;-83
2022/04/08 08:13:11;;;;;;;8.80;4.70;;;;;;;9.22;43.61;96122.90;107896;1290;22351;-83
2022/04/08 08:15:41;;;;;;;11.80;6.10;;;;;;;9.20;44.08;96109.29;107853;1291;22357;-83
2022/04/08 08:18:09;;;;;;;14.80;8.10;;;;;;;9.26;44.45;96117.86;107888;1291;22263;-83
2022/04/08 08:20:37;;;;;;;9.60;5.00;;;;;;;9.29;44.05;96121.58;107867;1288;22306;-82
2022/04/08 08:23:08;;;;;;;9.50;5.20;;;;;;;9.26;43.48;96126.09;107943;1290;22442;-82
2022/04/08 08:25:36;;;;;;;16.90;8.30;;;;;;;9.22;43.86;96135.25;107864;1290;22417;-81
2022/04/08 08:28:04;;;;;;;10.30;5.10;;;;;;;9.21;44.46;96146.36;108149;1290;22278;-82
2022/04/08 08:30:32;;;;;;;15.60;7.40;;;;;;;9.19;43.20;96155.96;108263;1290;22267;-83
2022/04/08 08:33:04;;;;;;;15.60;8.00;;;;;;;9.21;43.96;96155.89;108259;1290;22339;-81
2022/04/08 08:35:33;;;;;;;9.60;5.80;;;;;;;9.25;43.98;96153.52;108265;1290;22516;-82
2022/04/08 08:38:02;;;;;;;9.70;6.10;;;;;;;9.30;43.94;96156.08;107693;1290;22307;-82
2022/04/08 08:40:34;;;;;;;11.80;5.20;;;;;;;9.36;43.92;96159.58;107980;1290;22455;-81
2022/04/08 08:43:07;;;;;;;12.50;6.30;;;;;;;9.43;43.45;96162.00;107618;1290;22241;-85
2022/04/08 08:45:37;;;;;;;10.60;6.10;;;;;;;9.44;43.23;96172.77;108010;1290;22475;-85
2022/04/08 08:48:05;;;;;;;8.90;5.80;;;;;;;9.48;43.31;96173.36;108047;1290;23555;-81
2022/04/08 08:50:37;;;;;;;10.10;5.50;;;;;;;9.52;42.89;96179.35;107646;1290;23114;-84
2022/04/08 08:53:05;;;;;;;12.50;5.80;;;;;;;9.52;42.33;96185.48;107639;1290;22413;-82
2022/04/08 08:55:33;;;;;;;12.90;5.60;;;;;;;9.48;42.76;96172.77;107975;1290;23021;-84
2022/04/08 08:58:01;;;;;;;10.00;5.70;;;;;;;9.47;42.61;96181.56;107959;1290;22458;-83
2022/04/08 09:00:29;;;;;;;9.10;5.50;;;;;;;9.47;42.99;96175.79;107945;1290;22273;-84
2022/04/08 09:02:57;;;;;;;15.20;6.30;;;;;;;9.49;43.19;96178.48;107972;1290;22525;-82
2022/04/08 09:05:26;;;;;;;8.40;4.90;;;;;;;9.50;42.86;96177.14;107861;1291;22540;-85
2022/04/08 09:07:59;;;;;;;10.60;4.80;;;;;;;9.50;42.14;96183.20;107979;1290;22382;-83
2022/04/08 09:10:36;;;;;;;12.60;5.80;;;;;;;9.50;42.33;96175.27;107959;1290;22470;-84
2022/04/08 09:13:07;;;;;;;11.10;5.60;;;;;;;9.51;42.36;96183.83;107955;1290;23052;-83
2022/04/08 09:15:38;;;;;;;8.40;5.20;;;;;;;9.51;43.10;96180.00;107969;1290;22247;-83
2022/04/08 09:18:08;;;;;;;10.80;6.50;;;;;;;9.48;42.07;96181.90;107964;1290;22261;-86
2022/04/08 09:20:42;;;;;;;14.30;7.50;;;;;;;9.47;42.79;96187.86;107970;1290;22631;-85
2022/04/08 09:23:12;;;;;;;13.90;8.20;;;;;;;9.49;42.68;96186.66;107574;1291;22414;-84
2022/04/08 09:25:41;;;;;;;11.50;7.30;;;;;;;9.52;43.07;96182.49;107876;1291;22384;-83
2022/04/08 09:28:15;;;;;;;12.10;7.10;;;;;;;9.60;42.99;96182.79;107861;1291;22438;-85
2022/04/08 09:30:57;;;;;;;14.40;8.40;;;;;;;9.66;42.93;96188.77;107881;1290;22305;-84
2022/04/08 09:33:27;;;;;;;11.00;6.10;;;;;;;9.71;43.20;96195.00;107862;1291;22374;-85
2022/04/08 09:35:57;;;;;;;8.70;5.10;;;;;;;9.72;42.24;96203.89;107857;1291;22406;-86
2022/04/08 09:38:27;;;;;;;9.50;5.10;;;;;;;9.70;41.50;96213.04;107891;1291;22442;-85
2022/04/08 09:41:02;;;;;;;12.70;6.70;;;;;;;9.70;41.64;96196.44;107849;1291;22406;-85
2022/04/08 09:43:32;;;;;;;8.30;4.40;;;;;;;9.72;41.27;96216.94;107864;1290;23614;-86
2022/04/08 09:46:14;;;;;;;8.30;4.40;;;;;;;9.69;41.01;96193.65;107857;1291;22294;-85
2022/04/08 09:48:42;;;;;;;16.00;8.70;;;;;;;9.68;41.74;96202.67;107885;1291;22378;-86
2022/04/08 09:51:15;;;;;;;14.20;11.30;;;;;;;9.69;41.41;96214.30;107874;1291;22239;-87
2022/04/08 09:53:44;;;;;;;15.20;7.60;;;;;;;9.69;41.26;96223.68;107904;1290;22337;-86
2022/04/08 09:56:19;;;;;;;22.60;9.30;;;;;;;9.70;41.51;96210.43;107882;1291;22256;-86
2022/04/08 09:58:55;;;;;;;11.80;7.60;;;;;;;9.78;41.57;96203.55;107559;1291;22390;-86
2022/04/08 10:01:26;;;;;;;27.90;15.40;;;;;;;9.87;41.16;96208.52;107904;1291;22306;-83
2022/04/08 10:03:54;;;;;;;23.00;12.40;;;;;;;9.92;41.23;96200.84;107875;1291;22396;-85
2022/04/08 10:06:24;;;;;;;10.80;5.60;;;;;;;9.97;41.09;96200.40;107894;1291;22281;-86
2022/04/08 10:08:52;;;;;;;12.20;6.60;;;;;;;10.00;40.94;96204.64;107918;1291;22674;-87
2022/04/08 10:11:54;;;;;;;10.30;7.30;;;;;;;10.05;41.34;96203.85;107882;1291;22966;-83
2022/04/08 10:14:42;;;;;;;8.90;5.70;;;;;;;10.06;40.93;96199.11;107864;1291;22497;-87
2022/04/08 10:17:12;;;;;;;8.60;6.00;;;;;;;10.08;40.75;96198.95;107888;1291;22368;-87
2022/04/08 10:19:40;;;;;;;8.30;5.50;;;;;;;10.11;41.03;96191.77;107854;1291;22536;-83
2022/04/08 10:22:21;;;;;;;9.30;5.00;;;;;;;10.19;41.26;96192.87;107969;1290;22367;-86
2022/04/08 10:24:54;;;;;;;11.90;5.40;;;;;;;10.26;40.79;96192.81;107651;1290;23186;-83
2022/04/08 10:27:38;;;;;;;8.50;4.30;;;;;;;10.28;40.69;96199.68;107941;1290;22292;-85
2022/04/08 10:30:12;;;;;;;13.40;4.60;;;;;;;10.32;40.61;96201.05;107975;1290;23224;-85
2022/04/08 10:32:41;;;;;;;8.40;5.10;;;;;;;10.47;41.41;96199.00;107994;1290;22214;-84
2022/04/08 10:35:18;;;;;;;8.10;4.60;;;;;;;10.59;40.42;96206.15;107973;1290;22618;-86
2022/04/08 10:37:56;;;;;;;14.20;5.80;;;;;;;10.79;40.03;96200.71;107678;1290;23278;-86
2022/04/08 10:40:33;;;;;;;7.60;4.10;;;;;;;11.00;39.99;96214.73;107881;1290;22428;-86
2022/04/08 10:43:03;;;;;;;5.60;3.70;;;;;;;11.06;38.89;96205.56;107664;1290;22269;-85
2022/04/08 10:45:31;;;;;;;11.30;5.60;;;;;;;11.03;39.40;96205.27;107993;1290;23328;-85
2022/04/08 10:48:01;;;;;;;11.00;3.90;;;;;;;11.00;39.53;96215.17;107958;1290;22239;-86
2022/04/08 10:50:33;;;;;;;9.10;5.00;;;;;;;11.12;39.18;96219.20;107981;1290;22551;-84
2022/04/08 10:53:05;;;;;;;9.30;5.40;;;;;;;11.18;39.15;96216.44;107973;1290;22424;-86
2022/04/08 10:55:50;;;;;;;8.90;4.80;;;;;;;11.15;38.90;96217.98;107967;1290;22765;-84
2022/04/08 10:58:38;;;;;;;5.90;3.60;;;;;;;11.03;38.80;96222.41;107954;1290;22338;-86
2022/04/08 11:01:14;;;;;;;6.90;4.00;;;;;;;10.87;38.32;96234.84;108011;1290;22349;-86
2022/04/08 11:03:58;;;;;;;6.70;3.50;;;;;;;10.81;38.68;96222.13;107680;1290;22505;-87
2022/04/08 11:06:28;;;;;;;7.80;4.40;;;;;;;10.86;38.83;96226.96;107688;1290;23004;-91
2022/04/08 11:09:04;;;;;;;9.00;4.40;;;;;;;10.95;39.48;96216.05;107949;1290;22937;-87
2022/04/08 11:11:34;;;;;;;8.20;3.80;;;;;;;11.12;38.68;96232.70;107511;1290;22393;-88
2022/04/08 11:14:04;;;;;;;6.20;3.80;;;;;;;11.23;38.61;96238.98;107883;1290;22379;-87
2022/04/08 11:16:34;;;;;;;13.20;5.40;;;;;;;11.27;38.29;96225.41;107939;1290;22390;-86
2022/04/08 11:19:10;;;;;;;9.60;4.80;;;;;;;11.26;38.10;96226.31;107984;1290;23288;-88
2022/04/08 11:21:40;;;;;;;8.10;4.40;;;;;;;11.21;37.45;96242.10;108014;1290;22420;-84
2022/04/08 11:24:11;;;;;;;7.40;4.30;;;;;;;11.10;37.49;96256.50;107945;1290;22253;-87
2022/04/08 11:26:47;;;;;;;6.40;3.90;;;;;;;10.98;37.32;96244.86;107979;1289;23231;-89
2022/04/08 11:29:19;;;;;;;7.40;3.50;;;;;;;10.94;37.75;96243.73;107953;1290;22349;-89
2022/04/08 11:31:48;;;;;;;8.10;4.20;;;;;;;11.00;37.89;96231.64;107932;1290;22415;-91
2022/04/08 11:34:17;;;;;;;7.50;4.60;;;;;;;11.04;37.18;96237.70;107957;1290;22386;-89
2022/04/08 11:36:45;;;;;;;9.60;4.90;;;;;;;11.04;36.85;96233.60;107942;1290;22640;-88
2022/04/08 11:39:21;;;;;;;6.70;4.00;;;;;;;11.13;36.85;96237.12;107845;1291;22358;-88